sensor_id;sensor_type;location;lat;lon;timestamp;pressure;altitude;pressure_sealevel;temperature;humidity
49827;BME280;35715;51.570;6.036;2023-04-27T00:01:33;101944.19;;;7.46;63.37
49827;BME280;35715;51.570;6.036;2023-04-27T00:03:59;101940.59;;;7.44;63.70
49827;BME280;35715;51.570;6.036;2023-04-27T00:06:24;101946.03;;;7.38;64.27
49827;BME280;35715;51.570;6.036;2023-04-27T00:08:52;101943.00;;;7.34;64.03
49827;BME280;35715;51.570;6.036;2023-04-27T00:11:17;101935.75;;;7.29;64.72
49827;BME280;35715;51.570;6.036;2023-04-27T00:13:43;101942.41;;;7.27;64.46
49827;BME280;35715;51.570;6.036;2023-04-27T00:16:08;101940.59;;;7.26;64.61
49827;BME280;35715;51.570;6.036;2023-04-27T00:18:34;101949.22;;;7.27;64.69
49827;BME280;35715;51.570;6.036;2023-04-27T00:21:00;101950.56;;;7.23;64.79
49827;BME280;35715;51.570;6.036;2023-04-27T00:23:26;101955.69;;;7.23;65.50
49827;BME280;35715;51.570;6.036;2023-04-27T00:25:51;101943.78;;;7.24;65.45
49827;BME280;35715;51.570;6.036;2023-04-27T00:28:26;101960.22;;;7.26;65.04
49827;BME280;35715;51.570;6.036;2023-04-27T00:30:51;101946.94;;;7.21;65.37
49827;BME280;35715;51.570;6.036;2023-04-27T00:33:18;101952.84;;;7.12;65.07
49827;BME280;35715;51.570;6.036;2023-04-27T00:35:44;101957.47;;;7.07;65.06
49827;BME280;35715;51.570;6.036;2023-04-27T00:38:13;101951.91;;;6.93;65.32
49827;BME280;35715;51.570;6.036;2023-04-27T00:40:39;101958.50;;;6.83;65.42
49827;BME280;35715;51.570;6.036;2023-04-27T00:43:04;101949.13;;;6.74;65.17
49827;BME280;35715;51.570;6.036;2023-04-27T00:45:30;101943.25;;;6.67;65.95
49827;BME280;35715;51.570;6.036;2023-04-27T00:47:56;101947.16;;;6.63;66.10
49827;BME280;35715;51.570;6.036;2023-04-27T00:50:28;101947.16;;;6.63;65.79
49827;BME280;35715;51.570;6.036;2023-04-27T00:52:54;101956.34;;;6.61;65.71
49827;BME280;35715;51.570;6.036;2023-04-27T00:55:20;101951.66;;;6.57;66.75
49827;BME280;35715;51.570;6.036;2023-04-27T00:57:48;101955.88;;;6.56;66.20
49827;BME280;35715;51.570;6.036;2023-04-27T01:00:13;101954.97;;;6.56;66.28
49827;BME280;35715;51.570;6.036;2023-04-27T01:02:39;101960.56;;;6.61;65.85
49827;BME280;35715;51.570;6.036;2023-04-27T01:05:05;101967.53;;;6.62;65.51
49827;BME280;35715;51.570;6.036;2023-04-27T01:07:31;101960.41;;;6.59;65.63
49827;BME280;35715;51.570;6.036;2023-04-27T01:12:28;101959.19;;;6.55;66.50
49827;BME280;35715;51.570;6.036;2023-04-27T01:14:53;101957.38;;;6.54;66.74
49827;BME280;35715;51.570;6.036;2023-04-27T01:17:18;101958.88;;;6.52;66.80
49827;BME280;35715;51.570;6.036;2023-04-27T01:19:43;101955.41;;;6.52;66.80
49827;BME280;35715;51.570;6.036;2023-04-27T01:22:09;101958.88;;;6.52;66.80
49827;BME280;35715;51.570;6.036;2023-04-27T01:24:34;101957.81;;;6.50;66.17
49827;BME280;35715;51.570;6.036;2023-04-27T01:27:00;101955.09;;;6.49;66.88
49827;BME280;35715;51.570;6.036;2023-04-27T01:29:26;101953.91;;;6.45;67.01
49827;BME280;35715;51.570;6.036;2023-04-27T01:31:52;101956.16;;;6.42;66.86
49827;BME280;35715;51.570;6.036;2023-04-27T01:34:17;101957.31;;;6.37;66.83
49827;BME280;35715;51.570;6.036;2023-04-27T01:36:43;101957.00;;;6.34;67.09
49827;BME280;35715;51.570;6.036;2023-04-27T01:39:17;101949.91;;;6.31;67.19
49827;BME280;35715;51.570;6.036;2023-04-27T01:41:42;101952.66;;;6.33;67.13
49827;BME280;35715;51.570;6.036;2023-04-27T01:44:09;101953.06;;;6.29;67.34
49827;BME280;35715;51.570;6.036;2023-04-27T01:46:35;101956.53;;;6.29;67.65
49827;BME280;35715;51.570;6.036;2023-04-27T01:49:02;101961.50;;;6.28;67.57
49827;BME280;35715;51.570;6.036;2023-04-27T01:51:27;101955.16;;;6.24;67.58
49827;BME280;35715;51.570;6.036;2023-04-27T01:53:52;101951.34;;;6.20;67.68
49827;BME280;35715;51.570;6.036;2023-04-27T01:56:18;101955.44;;;6.18;67.88
49827;BME280;35715;51.570;6.036;2023-04-27T01:58:43;101955.13;;;6.15;67.61
49827;BME280;35715;51.570;6.036;2023-04-27T02:01:08;101954.22;;;6.15;67.73
49827;BME280;35715;51.570;6.036;2023-04-27T02:03:34;101957.03;;;6.09;67.76
49827;BME280;35715;51.570;6.036;2023-04-27T02:05:59;101950.53;;;6.04;68.30
49827;BME280;35715;51.570;6.036;2023-04-27T02:08:28;101957.47;;;6.05;68.22
49827;BME280;35715;51.570;6.036;2023-04-27T02:10:53;101952.34;;;6.05;67.89
49827;BME280;35715;51.570;6.036;2023-04-27T02:13:19;101944.91;;;5.99;67.96
49827;BME280;35715;51.570;6.036;2023-04-27T02:15:45;101950.81;;;5.98;68.14
49827;BME280;35715;51.570;6.036;2023-04-27T02:18:10;101950.66;;;5.97;68.13
49827;BME280;35715;51.570;6.036;2023-04-27T02:20:36;101945.53;;;5.97;68.29
49827;BME280;35715;51.570;6.036;2023-04-27T02:23:01;101945.13;;;5.85;68.51
49827;BME280;35715;51.570;6.036;2023-04-27T02:25:26;101948.25;;;5.82;68.40
49827;BME280;35715;51.570;6.036;2023-04-27T02:30:22;101938.88;;;5.74;69.50
49827;BME280;35715;51.570;6.036;2023-04-27T02:32:47;101935.25;;;5.72;68.84
49827;BME280;35715;51.570;6.036;2023-04-27T02:35:12;101939.41;;;5.63;70.12
49827;BME280;35715;51.570;6.036;2023-04-27T02:37:38;101942.59;;;5.69;69.74
49827;BME280;35715;51.570;6.036;2023-04-27T02:40:03;101934.34;;;5.72;69.60
49827;BME280;35715;51.570;6.036;2023-04-27T02:42:33;101933.13;;;5.68;69.97
49827;BME280;35715;51.570;6.036;2023-04-27T02:45:01;101928.16;;;5.69;69.96
49827;BME280;35715;51.570;6.036;2023-04-27T02:47:28;101931.63;;;5.70;69.88
49827;BME280;35715;51.570;6.036;2023-04-27T02:49:53;101930.13;;;5.72;69.36
49827;BME280;35715;51.570;6.036;2023-04-27T02:52:19;101926.81;;;5.73;69.32
49827;BME280;35715;51.570;6.036;2023-04-27T02:54:44;101920.66;;;5.71;69.11
49827;BME280;35715;51.570;6.036;2023-04-27T02:57:09;101929.63;;;5.67;69.56
49827;BME280;35715;51.570;6.036;2023-04-27T02:59:35;101922.88;;;5.68;70.10
49827;BME280;35715;51.570;6.036;2023-04-27T03:02:00;101916.69;;;5.66;69.65
49827;BME280;35715;51.570;6.036;2023-04-27T03:04:25;101915.72;;;5.57;69.99
49827;BME280;35715;51.570;6.036;2023-04-27T03:06:51;101926.06;;;5.49;70.20
49827;BME280;35715;51.570;6.036;2023-04-27T03:09:18;101927.88;;;5.50;70.89
49827;BME280;35715;51.570;6.036;2023-04-27T03:11:43;101932.69;;;5.47;71.25
49827;BME280;35715;51.570;6.036;2023-04-27T03:14:08;101922.81;;;5.35;71.77
49827;BME280;35715;51.570;6.036;2023-04-27T03:16:34;101928.41;;;5.39;71.69
49827;BME280;35715;51.570;6.036;2023-04-27T03:19:00;101928.91;;;5.44;70.97
49827;BME280;35715;51.570;6.036;2023-04-27T03:21:25;101933.09;;;5.43;70.92
49827;BME280;35715;51.570;6.036;2023-04-27T03:23:51;101934.00;;;5.44;70.80
49827;BME280;35715;51.570;6.036;2023-04-27T03:26:16;101929.47;;;5.41;70.90
49827;BME280;35715;51.570;6.036;2023-04-27T03:28:43;101926.19;;;5.42;70.39
49827;BME280;35715;51.570;6.036;2023-04-27T03:31:08;101937.41;;;5.36;70.48
49827;BME280;35715;51.570;6.036;2023-04-27T03:33:34;101939.63;;;5.32;70.52
49827;BME280;35715;51.570;6.036;2023-04-27T03:36:00;101937.50;;;5.28;70.72
49827;BME280;35715;51.570;6.036;2023-04-27T03:38:28;101936.75;;;5.29;71.08
49827;BME280;35715;51.570;6.036;2023-04-27T03:40:54;101940.06;;;5.28;70.88
49827;BME280;35715;51.570;6.036;2023-04-27T03:43:19;101937.50;;;5.28;70.88
49827;BME280;35715;51.570;6.036;2023-04-27T03:45:46;101946.81;;;5.28;70.30
49827;BME280;35715;51.570;6.036;2023-04-27T03:48:14;101946.50;;;5.25;70.32
49827;BME280;35715;51.570;6.036;2023-04-27T03:50:41;101946.34;;;5.23;70.65
49827;BME280;35715;51.570;6.036;2023-04-27T03:53:06;101950.56;;;5.23;70.76
49827;BME280;35715;51.570;6.036;2023-04-27T03:55:31;101958.22;;;5.23;70.83
49827;BME280;35715;51.570;6.036;2023-04-27T03:58:08;101952.03;;;5.21;70.46
49827;BME280;35715;51.570;6.036;2023-04-27T04:00:34;101953.03;;;5.14;70.75
49827;BME280;35715;51.570;6.036;2023-04-27T04:02:59;101953.59;;;5.11;70.85
49827;BME280;35715;51.570;6.036;2023-04-27T04:05:25;101956.59;;;5.07;71.60
49827;BME280;35715;51.570;6.036;2023-04-27T04:10:22;101951.72;;;5.02;71.51
49827;BME280;35715;51.570;6.036;2023-04-27T04:12:47;101947.75;;;4.96;71.30
49827;BME280;35715;51.570;6.036;2023-04-27T04:15:18;101945.78;;;4.94;71.89
49827;BME280;35715;51.570;6.036;2023-04-27T04:17:44;101948.34;;;4.94;72.24
49827;BME280;35715;51.570;6.036;2023-04-27T04:20:11;101956.19;;;4.95;71.78
49827;BME280;35715;51.570;6.036;2023-04-27T04:22:36;101954.84;;;4.99;71.66
49827;BME280;35715;51.570;6.036;2023-04-27T04:25:02;101961.63;;;4.98;71.59
49827;BME280;35715;51.570;6.036;2023-04-27T04:27:28;101958.28;;;5.00;71.84
49827;BME280;35715;51.570;6.036;2023-04-27T04:29:54;101958.91;;;4.97;71.42
49827;BME280;35715;51.570;6.036;2023-04-27T04:32:19;101972.41;;;4.96;72.09
49827;BME280;35715;51.570;6.036;2023-04-27T04:34:47;101966.56;;;4.97;71.80
49827;BME280;35715;51.570;6.036;2023-04-27T04:37:14;101971.84;;;4.98;71.64
49827;BME280;35715;51.570;6.036;2023-04-27T04:39:52;101975.31;;;4.99;71.46
49827;BME280;35715;51.570;6.036;2023-04-27T04:42:17;101973.47;;;4.98;71.30
49827;BME280;35715;51.570;6.036;2023-04-27T04:44:43;101974.97;;;4.96;71.59
49827;BME280;35715;51.570;6.036;2023-04-27T04:47:12;101980.41;;;4.99;72.23
49827;BME280;35715;51.570;6.036;2023-04-27T04:49:43;101993.53;;;5.02;72.38
49827;BME280;35715;51.570;6.036;2023-04-27T04:52:08;101989.09;;;5.08;72.07
49827;BME280;35715;51.570;6.036;2023-04-27T04:54:33;101992.41;;;5.07;72.29
49827;BME280;35715;51.570;6.036;2023-04-27T04:57:00;101994.19;;;5.08;72.09
49827;BME280;35715;51.570;6.036;2023-04-27T04:59:31;101997.09;;;5.11;71.97
49827;BME280;35715;51.570;6.036;2023-04-27T05:01:57;101997.19;;;5.20;72.25
49827;BME280;35715;51.570;6.036;2023-04-27T05:04:22;101989.59;;;5.29;71.96
49827;BME280;35715;51.570;6.036;2023-04-27T05:06:47;101994.31;;;5.33;71.48
49827;BME280;35715;51.570;6.036;2023-04-27T05:09:20;101991.31;;;5.37;71.76
49827;BME280;35715;51.570;6.036;2023-04-27T05:11:45;101997.06;;;5.43;71.63
49827;BME280;35715;51.570;6.036;2023-04-27T05:14:11;101990.25;;;5.35;72.78
49827;BME280;35715;51.570;6.036;2023-04-27T05:16:39;101997.44;;;5.30;73.14
49827;BME280;35715;51.570;6.036;2023-04-27T05:19:09;101996.59;;;5.23;74.42
49827;BME280;35715;51.570;6.036;2023-04-27T05:21:34;101999.91;;;5.22;74.45
49827;BME280;35715;51.570;6.036;2023-04-27T05:23:59;101997.41;;;5.14;75.12
49827;BME280;35715;51.570;6.036;2023-04-27T05:26:26;101995.84;;;5.24;75.04
49827;BME280;35715;51.570;6.036;2023-04-27T05:28:53;101993.53;;;5.34;75.14
49827;BME280;35715;51.570;6.036;2023-04-27T05:31:18;101995.13;;;5.41;75.48
49827;BME280;35715;51.570;6.036;2023-04-27T05:33:44;101997.88;;;5.51;74.87
49827;BME280;35715;51.570;6.036;2023-04-27T05:36:09;101992.75;;;5.51;75.55
49827;BME280;35715;51.570;6.036;2023-04-27T05:38:35;101997.00;;;5.50;75.72
49827;BME280;35715;51.570;6.036;2023-04-27T05:41:04;102005.72;;;5.53;75.62
49827;BME280;35715;51.570;6.036;2023-04-27T05:43:29;102000.13;;;5.48;76.00
49827;BME280;35715;51.570;6.036;2023-04-27T05:45:54;102003.59;;;5.48;76.12
49827;BME280;35715;51.570;6.036;2023-04-27T05:48:19;102006.16;;;5.48;76.77
49827;BME280;35715;51.570;6.036;2023-04-27T05:50:45;102011.53;;;5.59;76.04
49827;BME280;35715;51.570;6.036;2023-04-27T05:53:10;102006.72;;;5.62;76.82
49827;BME280;35715;51.570;6.036;2023-04-27T05:55:35;102001.94;;;5.65;75.67
49827;BME280;35715;51.570;6.036;2023-04-27T06:00:31;101998.03;;;5.68;76.39
49827;BME280;35715;51.570;6.036;2023-04-27T06:02:56;102004.84;;;5.77;77.03
49827;BME280;35715;51.570;6.036;2023-04-27T06:05:21;102006.59;;;5.85;76.77
49827;BME280;35715;51.570;6.036;2023-04-27T06:07:47;102009.63;;;5.90;75.92
49827;BME280;35715;51.570;6.036;2023-04-27T06:10:13;102006.41;;;5.99;75.87
49827;BME280;35715;51.570;6.036;2023-04-27T06:12:38;102011.91;;;6.11;75.66
49827;BME280;35715;51.570;6.036;2023-04-27T06:15:04;102008.19;;;6.16;75.39
49827;BME280;35715;51.570;6.036;2023-04-27T06:17:34;102009.25;;;6.18;75.41
49827;BME280;35715;51.570;6.036;2023-04-27T06:19:59;102009.66;;;6.14;75.11
49827;BME280;35715;51.570;6.036;2023-04-27T06:22:24;102010.28;;;6.20;74.03
49827;BME280;35715;51.570;6.036;2023-04-27T06:24:50;102011.38;;;6.22;73.93
49827;BME280;35715;51.570;6.036;2023-04-27T06:27:15;102007.53;;;6.35;74.51
49827;BME280;35715;51.570;6.036;2023-04-27T06:32:11;102001.19;;;6.65;73.64
49827;BME280;35715;51.570;6.036;2023-04-27T06:34:36;102000.81;;;6.95;72.41
49827;BME280;35715;51.570;6.036;2023-04-27T06:37:01;101997.38;;;7.21;70.60
49827;BME280;35715;51.570;6.036;2023-04-27T06:39:27;102000.56;;;7.62;69.52
49827;BME280;35715;51.570;6.036;2023-04-27T06:41:52;102003.84;;;7.96;65.00
49827;BME280;35715;51.570;6.036;2023-04-27T06:44:17;101998.56;;;8.40;64.58
49827;BME280;35715;51.570;6.036;2023-04-27T06:46:43;101999.25;;;8.65;62.08
49827;BME280;35715;51.570;6.036;2023-04-27T06:49:08;101990.31;;;8.98;60.18
49827;BME280;35715;51.570;6.036;2023-04-27T06:51:33;101995.50;;;9.36;61.10
49827;BME280;35715;51.570;6.036;2023-04-27T06:53:58;101991.09;;;9.54;59.06
49827;BME280;35715;51.570;6.036;2023-04-27T06:56:24;101990.13;;;9.62;56.47
49827;BME280;35715;51.570;6.036;2023-04-27T07:01:20;101999.56;;;10.30;55.56
49827;BME280;35715;51.570;6.036;2023-04-27T07:03:46;102002.13;;;10.50;53.82
49827;BME280;35715;51.570;6.036;2023-04-27T07:06:11;101999.81;;;10.73;54.81
49827;BME280;35715;51.570;6.036;2023-04-27T07:08:37;102001.66;;;10.95;54.36
49827;BME280;35715;51.570;6.036;2023-04-27T07:11:02;101994.94;;;11.17;53.99
49827;BME280;35715;51.570;6.036;2023-04-27T07:13:28;101988.97;;;11.39;51.64
49827;BME280;35715;51.570;6.036;2023-04-27T07:15:56;101990.28;;;11.24;50.97
49827;BME280;35715;51.570;6.036;2023-04-27T07:18:23;101990.16;;;11.12;48.27
49827;BME280;35715;51.570;6.036;2023-04-27T07:20:48;101997.09;;;11.44;48.61
49827;BME280;35715;51.570;6.036;2023-04-27T07:23:13;102004.91;;;11.13;47.73
49827;BME280;35715;51.570;6.036;2023-04-27T07:25:41;102006.88;;;11.68;48.28
49827;BME280;35715;51.570;6.036;2023-04-27T07:30:37;101992.59;;;12.71;47.32
49827;BME280;35715;51.570;6.036;2023-04-27T07:33:03;101990.06;;;12.60;49.37
49827;BME280;35715;51.570;6.036;2023-04-27T07:35:28;101998.94;;;12.52;47.50
49827;BME280;35715;51.570;6.036;2023-04-27T07:37:55;101992.47;;;12.47;47.90
49827;BME280;35715;51.570;6.036;2023-04-27T07:40:20;101991.69;;;12.48;46.54
49827;BME280;35715;51.570;6.036;2023-04-27T07:42:46;101988.78;;;12.77;47.21
49827;BME280;35715;51.570;6.036;2023-04-27T07:45:11;101989.94;;;12.59;46.55
49827;BME280;35715;51.570;6.036;2023-04-27T07:47:37;101975.53;;;12.85;45.89
49827;BME280;35715;51.570;6.036;2023-04-27T07:50:03;101977.50;;;13.11;46.36
49827;BME280;35715;51.570;6.036;2023-04-27T07:52:28;101979.97;;;13.43;45.58
49827;BME280;35715;51.570;6.036;2023-04-27T07:54:54;101976.88;;;13.96;43.97
49827;BME280;35715;51.570;6.036;2023-04-27T07:57:19;101982.06;;;14.08;42.86
49827;BME280;35715;51.570;6.036;2023-04-27T08:00:00;101970.44;;;13.91;41.77
49827;BME280;35715;51.570;6.036;2023-04-27T08:02:26;101979.06;;;13.66;42.18
49827;BME280;35715;51.570;6.036;2023-04-27T08:04:55;101977.47;;;13.45;42.90
49827;BME280;35715;51.570;6.036;2023-04-27T08:07:21;101967.25;;;13.12;43.29
49827;BME280;35715;51.570;6.036;2023-04-27T08:12:16;101970.09;;;13.27;42.38
49827;BME280;35715;51.570;6.036;2023-04-27T08:14:42;101965.09;;;13.64;43.46
49827;BME280;35715;51.570;6.036;2023-04-27T08:17:07;101963.16;;;13.86;41.04
49827;BME280;35715;51.570;6.036;2023-04-27T08:19:36;101959.44;;;13.70;42.25
49827;BME280;35715;51.570;6.036;2023-04-27T08:22:02;101971.50;;;13.34;40.98
49827;BME280;35715;51.570;6.036;2023-04-27T08:24:27;101966.06;;;13.43;42.95
49827;BME280;35715;51.570;6.036;2023-04-27T08:26:52;101962.72;;;13.56;42.14
49827;BME280;35715;51.570;6.036;2023-04-27T08:29:19;101968.56;;;13.65;41.53
49827;BME280;35715;51.570;6.036;2023-04-27T08:31:44;101972.13;;;14.02;43.45
49827;BME280;35715;51.570;6.036;2023-04-27T08:34:09;101967.59;;;14.12;41.38
49827;BME280;35715;51.570;6.036;2023-04-27T08:36:35;101975.28;;;13.98;39.83
49827;BME280;35715;51.570;6.036;2023-04-27T08:39:00;101979.59;;;13.86;41.12
49827;BME280;35715;51.570;6.036;2023-04-27T08:41:31;101979.59;;;13.62;41.88
49827;BME280;35715;51.570;6.036;2023-04-27T08:43:56;101976.13;;;13.74;41.43
49827;BME280;35715;51.570;6.036;2023-04-27T08:46:22;101968.78;;;14.29;42.37
49827;BME280;35715;51.570;6.036;2023-04-27T08:48:48;101973.56;;;14.23;41.85
49827;BME280;35715;51.570;6.036;2023-04-27T08:51:14;101972.00;;;14.50;40.80
49827;BME280;35715;51.570;6.036;2023-04-27T08:53:48;101967.47;;;14.47;40.29
49827;BME280;35715;51.570;6.036;2023-04-27T08:56:14;101957.59;;;14.92;39.86
49827;BME280;35715;51.570;6.036;2023-04-27T08:58:41;101946.66;;;15.36;40.16
49827;BME280;35715;51.570;6.036;2023-04-27T09:01:06;101955.78;;;15.43;40.44
49827;BME280;35715;51.570;6.036;2023-04-27T09:03:32;101943.50;;;15.54;40.68
49827;BME280;35715;51.570;6.036;2023-04-27T09:05:58;101946.88;;;15.39;38.60
49827;BME280;35715;51.570;6.036;2023-04-27T09:08:24;101940.41;;;15.59;40.29
49827;BME280;35715;51.570;6.036;2023-04-27T09:10:50;101941.88;;;15.96;38.79
49827;BME280;35715;51.570;6.036;2023-04-27T09:13:16;101944.59;;;15.98;38.43
49827;BME280;35715;51.570;6.036;2023-04-27T09:15:42;101952.59;;;15.87;38.83
49827;BME280;35715;51.570;6.036;2023-04-27T09:18:16;101952.28;;;15.29;37.50
49827;BME280;35715;51.570;6.036;2023-04-27T09:20:42;101947.84;;;15.15;38.84
49827;BME280;35715;51.570;6.036;2023-04-27T09:23:07;101952.38;;;15.57;40.41
49827;BME280;35715;51.570;6.036;2023-04-27T09:25:33;101947.50;;;15.89;38.17
49827;BME280;35715;51.570;6.036;2023-04-27T09:28:01;101947.63;;;16.19;36.78
49827;BME280;35715;51.570;6.036;2023-04-27T09:30:27;101945.13;;;16.20;38.38
49827;BME280;35715;51.570;6.036;2023-04-27T09:35:22;101938.75;;;16.02;38.54
49827;BME280;35715;51.570;6.036;2023-04-27T09:37:48;101944.09;;;15.90;35.93
49827;BME280;35715;51.570;6.036;2023-04-27T09:40:14;101933.31;;;16.12;37.73
49827;BME280;35715;51.570;6.036;2023-04-27T09:42:39;101938.78;;;16.30;36.24
49827;BME280;35715;51.570;6.036;2023-04-27T09:45:05;101934.91;;;16.66;37.18
49827;BME280;35715;51.570;6.036;2023-04-27T09:47:31;101929.22;;;16.87;36.66
49827;BME280;35715;51.570;6.036;2023-04-27T09:50:03;101936.78;;;16.54;34.22
49827;BME280;35715;51.570;6.036;2023-04-27T09:52:29;101923.69;;;16.67;36.60
49827;BME280;35715;51.570;6.036;2023-04-27T09:54:54;101932.03;;;16.62;35.45
49827;BME280;35715;51.570;6.036;2023-04-27T10:08:05;101919.53;;;16.00;33.87
49827;BME280;35715;51.570;6.036;2023-04-27T10:10:46;101910.81;;;16.12;33.86
49827;BME280;35715;51.570;6.036;2023-04-27T10:13:19;101909.34;;;16.31;36.35
49827;BME280;35715;51.570;6.036;2023-04-27T10:15:45;101910.88;;;16.42;34.30
49827;BME280;35715;51.570;6.036;2023-04-27T10:18:12;101912.25;;;16.50;33.80
49827;BME280;35715;51.570;6.036;2023-04-27T10:20:48;101910.81;;;16.99;35.28
49827;BME280;35715;51.570;6.036;2023-04-27T10:23:43;101905.28;;;17.24;33.76
49827;BME280;35715;51.570;6.036;2023-04-27T10:26:05;101908.00;;;17.11;32.98
49827;BME280;35715;51.570;6.036;2023-04-27T10:28:37;101910.75;;;16.69;32.45
49827;BME280;35715;51.570;6.036;2023-04-27T10:31:08;101901.34;;;17.31;33.77
49827;BME280;35715;51.570;6.036;2023-04-27T10:33:40;101905.09;;;17.36;33.84
49827;BME280;35715;51.570;6.036;2023-04-27T10:36:06;101911.41;;;17.40;33.76
49827;BME280;35715;51.570;6.036;2023-04-27T10:38:42;101907.81;;;16.78;33.50
49827;BME280;35715;51.570;6.036;2023-04-27T10:41:12;101900.03;;;16.49;33.80
49827;BME280;35715;51.570;6.036;2023-04-27T10:43:37;101900.91;;;17.23;33.33
49827;BME280;35715;51.570;6.036;2023-04-27T10:46:06;101902.56;;;17.52;34.47
49827;BME280;35715;51.570;6.036;2023-04-27T10:51:16;101912.81;;;18.12;33.05
49827;BME280;35715;51.570;6.036;2023-04-27T10:53:42;101913.06;;;18.00;31.71
49827;BME280;35715;51.570;6.036;2023-04-27T10:56:07;101908.34;;;18.09;31.03
49827;BME280;35715;51.570;6.036;2023-04-27T10:58:34;101912.00;;;18.13;30.47
49827;BME280;35715;51.570;6.036;2023-04-27T11:01:00;101899.88;;;18.81;29.82
49827;BME280;35715;51.570;6.036;2023-04-27T11:03:25;101897.91;;;19.11;30.51
49827;BME280;35715;51.570;6.036;2023-04-27T11:06:01;101898.09;;;19.32;29.99
49827;BME280;35715;51.570;6.036;2023-04-27T11:08:28;101898.59;;;19.43;29.83
49827;BME280;35715;51.570;6.036;2023-04-27T11:10:54;101887.69;;;19.52;27.61
49827;BME280;35715;51.570;6.036;2023-04-27T11:13:21;101883.53;;;19.93;30.58
49827;BME280;35715;51.570;6.036;2023-04-27T11:18:30;101885.50;;;19.61;28.46
49827;BME280;35715;51.570;6.036;2023-04-27T11:23:44;101875.72;;;19.39;27.85
49827;BME280;35715;51.570;6.036;2023-04-27T11:26:10;101871.44;;;20.55;27.01
49827;BME280;35715;51.570;6.036;2023-04-27T11:31:23;101868.06;;;20.38;28.37
49827;BME280;35715;51.570;6.036;2023-04-27T11:33:48;101862.63;;;20.53;27.98
49827;BME280;35715;51.570;6.036;2023-04-27T11:36:20;101870.16;;;19.87;27.08
49827;BME280;35715;51.570;6.036;2023-04-27T11:38:56;101862.28;;;20.46;28.02
49827;BME280;35715;51.570;6.036;2023-04-27T11:41:21;101854.69;;;21.36;29.05
49827;BME280;35715;51.570;6.036;2023-04-27T11:43:47;101845.38;;;21.01;27.39
49827;BME280;35715;51.570;6.036;2023-04-27T11:46:13;101851.97;;;21.12;26.51
49827;BME280;35715;51.570;6.036;2023-04-27T11:48:49;101844.34;;;22.10;25.13
49827;BME280;35715;51.570;6.036;2023-04-27T11:51:14;101845.47;;;21.69;26.46
49827;BME280;35715;51.570;6.036;2023-04-27T11:53:39;101845.25;;;20.77;26.02
49827;BME280;35715;51.570;6.036;2023-04-27T11:56:06;101850.69;;;20.01;27.31
49827;BME280;35715;51.570;6.036;2023-04-27T12:01:22;101831.09;;;19.18;29.21
49827;BME280;35715;51.570;6.036;2023-04-27T12:03:48;101831.66;;;18.76;28.49
49827;BME280;35715;51.570;6.036;2023-04-27T12:06:13;101836.31;;;18.48;28.85
49827;BME280;35715;51.570;6.036;2023-04-27T12:08:40;101835.34;;;18.29;29.48
49827;BME280;35715;51.570;6.036;2023-04-27T12:11:05;101838.56;;;17.76;29.24
49827;BME280;35715;51.570;6.036;2023-04-27T12:13:30;101839.97;;;17.85;31.09
49827;BME280;35715;51.570;6.036;2023-04-27T12:15:56;101838.34;;;17.87;29.36
49827;BME280;35715;51.570;6.036;2023-04-27T12:20:57;101832.25;;;17.55;31.21
49827;BME280;35715;51.570;6.036;2023-04-27T12:23:22;101836.34;;;17.19;31.10
49827;BME280;35715;51.570;6.036;2023-04-27T12:25:48;101827.84;;;16.92;31.68
49827;BME280;35715;51.570;6.036;2023-04-27T12:30:43;101816.03;;;16.54;33.40
49827;BME280;35715;51.570;6.036;2023-04-27T12:33:09;101820.22;;;16.22;32.66
49827;BME280;35715;51.570;6.036;2023-04-27T12:35:37;101821.84;;;16.35;32.97
49827;BME280;35715;51.570;6.036;2023-04-27T12:38:07;101814.50;;;16.42;30.26
49827;BME280;35715;51.570;6.036;2023-04-27T12:40:33;101805.59;;;16.24;31.13
49827;BME280;35715;51.570;6.036;2023-04-27T12:42:58;101815.28;;;16.26;33.12
49827;BME280;35715;51.570;6.036;2023-04-27T12:45:24;101813.50;;;16.25;32.98
49827;BME280;35715;51.570;6.036;2023-04-27T12:47:59;101813.50;;;16.40;32.96
49827;BME280;35715;51.570;6.036;2023-04-27T12:50:25;101809.00;;;16.38;32.76
49827;BME280;35715;51.570;6.036;2023-04-27T12:52:58;101819.19;;;16.05;32.28
49827;BME280;35715;51.570;6.036;2023-04-27T12:55:24;101813.78;;;16.02;33.50
49827;BME280;35715;51.570;6.036;2023-04-27T12:57:53;101822.09;;;16.09;32.52
49827;BME280;35715;51.570;6.036;2023-04-27T13:00:19;101811.69;;;16.09;32.20
49827;BME280;35715;51.570;6.036;2023-04-27T13:02:44;101815.88;;;16.07;32.49
49827;BME280;35715;51.570;6.036;2023-04-27T13:05:10;101806.94;;;16.17;32.01
49827;BME280;35715;51.570;6.036;2023-04-27T13:07:35;101797.19;;;16.43;30.72
49827;BME280;35715;51.570;6.036;2023-04-27T13:10:01;101794.13;;;16.35;32.15
49827;BME280;35715;51.570;6.036;2023-04-27T13:12:27;101804.81;;;15.96;32.38
49827;BME280;35715;51.570;6.036;2023-04-27T13:14:52;101806.63;;;15.98;32.80
49827;BME280;35715;51.570;6.036;2023-04-27T13:17:17;101809.50;;;15.60;33.21
49827;BME280;35715;51.570;6.036;2023-04-27T13:19:49;101795.31;;;15.55;34.15
49827;BME280;35715;51.570;6.036;2023-04-27T13:22:14;101807.91;;;15.63;34.37
49827;BME280;35715;51.570;6.036;2023-04-27T13:24:40;101797.06;;;15.70;32.98
49827;BME280;35715;51.570;6.036;2023-04-27T13:27:06;101799.16;;;15.89;33.65
49827;BME280;35715;51.570;6.036;2023-04-27T13:32:03;101794.44;;;15.83;33.13
49827;BME280;35715;51.570;6.036;2023-04-27T13:34:28;101793.47;;;15.81;33.75
49827;BME280;35715;51.570;6.036;2023-04-27T13:36:54;101795.47;;;15.72;32.64
49827;BME280;35715;51.570;6.036;2023-04-27T13:41:50;101783.94;;;16.10;34.02
49827;BME280;35715;51.570;6.036;2023-04-27T13:44:15;101777.63;;;16.06;32.19
49827;BME280;35715;51.570;6.036;2023-04-27T13:46:41;101779.44;;;16.07;33.34
49827;BME280;35715;51.570;6.036;2023-04-27T13:49:16;101774.41;;;16.10;31.70